地図

経路データ

SID SEASON NUMBER BASIN SUBBASIN NAME ISO_TIME NATURE LAT LON WMO_WIND WMO_PRES WMO_AGENCY TRACK_TYPE DIST2LAND LANDFALL IFLAG USA_AGENCY USA_ATCF_ID USA_LAT USA_LON USA_RECORD USA_STATUS USA_WIND USA_PRES USA_SSHS USA_R34_NE USA_R34_SE USA_R34_SW USA_R34_NW USA_R50_NE USA_R50_SE USA_R50_SW USA_R50_NW USA_R64_NE USA_R64_SE USA_R64_SW USA_R64_NW USA_POCI USA_ROCI USA_RMW USA_EYE TOKYO_LAT TOKYO_LON TOKYO_GRADE TOKYO_WIND TOKYO_PRES TOKYO_R50_DIR TOKYO_R50_LONG TOKYO_R50_SHORT TOKYO_R30_DIR TOKYO_R30_LONG TOKYO_R30_SHORT TOKYO_LAND CMA_LAT CMA_LON CMA_CAT CMA_WIND CMA_PRES HKO_LAT HKO_LON HKO_CAT HKO_WIND HKO_PRES NEWDELHI_LAT NEWDELHI_LON NEWDELHI_GRADE NEWDELHI_WIND NEWDELHI_PRES NEWDELHI_CI NEWDELHI_DP NEWDELHI_POCI REUNION_LAT REUNION_LON REUNION_TYPE REUNION_WIND REUNION_PRES REUNION_TNUM REUNION_CI REUNION_RMW REUNION_R34_NE REUNION_R34_SE REUNION_R34_SW REUNION_R34_NW REUNION_R50_NE REUNION_R50_SE REUNION_R50_SW REUNION_R50_NW REUNION_R64_NE REUNION_R64_SE REUNION_R64_SW REUNION_R64_NW BOM_LAT BOM_LON BOM_TYPE BOM_WIND BOM_PRES BOM_TNUM BOM_CI BOM_RMW BOM_R34_NE BOM_R34_SE BOM_R34_SW BOM_R34_NW BOM_R50_NE BOM_R50_SE BOM_R50_SW BOM_R50_NW BOM_R64_NE BOM_R64_SE BOM_R64_SW BOM_R64_NW BOM_ROCI BOM_POCI BOM_EYE BOM_POS_METHOD BOM_PRES_METHOD NADI_LAT NADI_LON NADI_CAT NADI_WIND NADI_PRES WELLINGTON_LAT WELLINGTON_LON WELLINGTON_WIND WELLINGTON_PRES DS824_LAT DS824_LON DS824_STAGE DS824_WIND DS824_PRES TD9636_LAT TD9636_LON TD9636_STAGE TD9636_WIND TD9636_PRES TD9635_LAT TD9635_LON TD9635_WIND TD9635_PRES TD9635_ROCI NEUMANN_LAT NEUMANN_LON NEUMANN_CLASS NEUMANN_WIND NEUMANN_PRES MLC_LAT MLC_LON MLC_CLASS MLC_WIND MLC_PRES USA_GUST BOM_GUST BOM_GUST_PER REUNION_GUST REUNION_GUST_PER USA_SEAHGT USA_SEARAD_NE USA_SEARAD_SE USA_SEARAD_SW USA_SEARAD_NW STORM_SPEED STORM_DIR
1945362S15123 1946 88 SI WA NOT_NAMED 1945-12-27 23:00:00 NR -15.2000 123.400 main 116 109 __________O___ -1 -15.2000 123.400 7 8 226
1945362S15123 1946 88 SI WA NOT_NAMED 1945-12-28 00:00:00 TS -15.2906 123.302 main 109 105 O________OP___ jtwc_sh SH041946 -15.3000 123.300 -1 -15.3000 123.300 TC -15.2812 123.305 7 3 0
1945362S15123 1946 88 SI WA NOT_NAMED 1945-12-28 01:00:00 TS -15.2916 123.426 1000 bom main 105 95 P_____O__PP___ SH041946 -15.3867 123.196 -1 -14.7000 125.000 1000 -15.3867 123.196 TC -15.3622 123.210 7 3 190
1945362S15123 1946 88 SI WA NOT_NAMED 1945-12-28 03:00:00 TS -15.4256 123.280 main 99 92 P_____P__PP___ SH041946 -15.5576 122.990 -1 -14.8366 124.672 -15.5576 122.990 TC -15.5221 123.020 7 6 230
1945362S15123 1946 88 SI WA NOT_NAMED 1945-12-28 06:00:00 TS -15.6358 123.007 main 100 79 O_____P__OP___ jtwc_sh SH041946 -15.8000 122.700 -1 -15.0407 124.180 -15.8000 122.700 TC -15.7536 122.741 7 6 232
1945362S15123 1946 88 SI WA NOT_NAMED 1945-12-28 09:00:00 TS -15.8106 122.762 main 79 70 P_____P__PP___ SH041946 -16.0149 122.442 -1 -15.2435 123.693 -16.0149 122.442 TC -15.9689 122.472 7 6 235
1945362S15123 1946 88 SI WA NOT_NAMED 1945-12-28 11:00:00 TS -15.9403 122.558 main 74 70 P_____P__PO___ SH041946 -16.1416 122.281 -1 -15.3780 123.372 -16.1416 122.281 TC -16.1000 122.300 7 7 237
1945362S15123 1946 88 SI WA NOT_NAMED 1945-12-28 12:00:00 TS -16.0015 122.458 main 70 69 O_____P__OP___ jtwc_sh SH041946 -16.2000 122.200 -1 -15.4449 123.213 -16.2000 122.200 TC -16.1612 122.217 7 7 239
1945362S15123 1946 88 SI WA NOT_NAMED 1945-12-28 15:00:00 TS -16.1759 122.155 main 77 77 P_____P__PP___ SH041946 -16.3650 121.950 -1 -15.6449 122.744 -16.3650 121.950 TC -16.3288 121.975 7 7 240
1945362S15123 1946 88 SI WA NOT_NAMED 1945-12-28 18:00:00 TS -16.3302 121.856 main 92 92 O_____P__OP___ jtwc_sh SH041946 -16.5000 121.700 -1 -15.8433 122.289 -16.5000 121.700 TC -16.4775 121.734 7 6 243
1945362S15123 1946 88 SI WA NOT_NAMED 1945-12-28 21:00:00 TS -16.4633 121.562 main 100 100 P_____P__PP___ SH041946 -16.5999 121.457 -1 -16.0401 121.851 -16.5999 121.457 TC -16.6134 121.481 7 6 245
1945362S15123 1946 88 SI WA NOT_NAMED 1945-12-28 23:00:00 TS -16.5494 121.362 main 117 117 P_____P__PO___ SH041946 -16.6635 121.289 -1 -16.1704 121.571 -16.6635 121.289 TC -16.7000 121.300 7 6 249
1945362S15123 1946 88 SI WA NOT_NAMED 1945-12-29 00:00:00 TS -16.5715 121.274 main 120 120 O_____P__OP___ jtwc_sh SH041946 -16.7000 121.200 -1 -16.2353 121.434 -16.7000 121.200 TC -16.7437 121.207 7 5 253
1945362S15123 1946 88 SI WA NOT_NAMED 1945-12-29 01:00:00 TS -16.6026 121.181 995 bom main 129 129 P_____O__PP___ SH041946 -16.7469 121.108 -1 -16.3000 121.300 995 -16.7469 121.108 TC -16.7863 121.111 7 6 247
1945362S15123 1946 88 SI WA NOT_NAMED 1945-12-29 03:00:00 TS -16.6927 120.972 main 144 144 P_____P__PP___ SH041946 -16.8500 120.915 -1 -16.4289 121.040 -16.8500 120.915 TC -16.8689 120.912 7 7 246
1945362S15123 1946 88 SI WA NOT_NAMED 1945-12-29 06:00:00 TS -16.8381 120.638 main 179 175 O_____P__OP___ jtwc_sh SH041946 -17.0000 120.600 -1 -16.6211 120.665 -17.0000 120.600 TC -16.9900 120.593 7 7 246
1945362S15123 1946 88 SI WA NOT_NAMED 1945-12-29 09:00:00 TS -16.9786 120.288 main 202 202 P_____P__PP___ SH041946 -17.0999 120.272 -1 -16.8118 120.304 -17.0999 120.272 TC -17.1134 120.247 7 7 248
1945362S15123 1946 88 SI WA NOT_NAMED 1945-12-29 11:00:00 TS -17.0717 120.043 main 229 229 P_____P__PO___ SH041946 -17.1635 120.031 -1 -16.9381 120.066 -17.1635 120.031 TC -17.2000 120.000 7 8 249
1945362S15123 1946 88 SI WA NOT_NAMED 1945-12-29 12:00:00 TS -17.1185 119.915 main 240 240 O_____P__OP___ jtwc_sh SH041946 -17.2000 119.900 -1 -17.0010 119.948 -17.2000 119.900 TC -17.2356 119.869 7 8 249
1945362S15123 1946 88 SI WA NOT_NAMED 1945-12-29 15:00:00 TS -17.2690 119.505 main 274 274 P_____P__PP___ SH041946 -17.3350 119.457 -1 -17.1886 119.591 -17.3350 119.457 TC -17.3434 119.453 7 9 248
1945362S15123 1946 88 SI WA NOT_NAMED 1945-12-29 18:00:00 TS -17.4352 119.085 main 300 281 O_____P__OP___ jtwc_sh SH041946 -17.5000 119.000 -1 -17.3744 119.226 -17.5000 119.000 TC -17.4719 119.018 7 9 246
1945362S15123 1946 88 SI WA NOT_NAMED 1945-12-29 21:00:00 TS -17.6169 118.674 main 282 273 P_____P__PP___ SH041946 -17.6699 118.592 -1 -17.5583 118.845 -17.6699 118.592 TC -17.6461 118.582 7 9 243
1945362S15123 1946 88 SI WA NOT_NAMED 1945-12-29 23:00:00 TS -17.7613 118.401 main 267 267 P_____P__PO___ SH041946 -17.8135 118.331 -1 -17.6797 118.578 -17.8135 118.331 TC -17.8000 118.300 7 9 240
1945362S15123 1946 88 SI WA NOT_NAMED 1945-12-30 00:00:00 TS -17.8482 118.261 main 270 263 O_____P__OP___ jtwc_sh SH041946 -17.9000 118.200 -1 -17.7400 118.441 -17.9000 118.200 TC -17.8898 118.167 7 10 236
1945362S15123 1946 88 SI WA NOT_NAMED 1945-12-30 01:00:00 TS -17.9454 118.116 980 bom main 267 251 P_____O__PP___ SH041946 -17.9969 118.064 -1 -17.8000 118.300 980 -17.9969 118.064 TC -17.9879 118.036 7 10 234
1945362S15123 1946 88 SI WA NOT_NAMED 1945-12-30 03:00:00 TS -18.1370 117.839 main 259 232 P_____P__PP___ SH041946 -18.2200 117.792 -1 -17.9011 117.994 980 -18.2200 117.792 TC -18.2068 117.779 7 10 232
1945362S15123 1946 88 SI WA NOT_NAMED 1945-12-30 06:00:00 TS -18.4613 117.433 main 224 203 O_____P__OP___ jtwc_sh SH041946 -18.6000 117.400 -1 -18.0620 117.528 980 -18.6000 117.400 TC -18.5833 117.404 7 10 228
1945362S15123 1946 88 SI WA NOT_NAMED 1945-12-30 09:00:00 TS -18.8010 117.049 main 202 202 P_____P__PP___ SH041946 -18.9699 117.042 -1 -18.2610 117.073 980 -18.9699 117.042 TC -19.0034 117.039 7 10 227
1945362S15123 1946 88 SI WA NOT_NAMED 1945-12-30 09:30:00 TS -18.8622 116.987 980 bom main 191 178 P_____O__PP___ SH041946 -19.0361 116.985 -1 -18.3000 117.000 980 -19.0361 116.985 TC -19.0766 116.979 7 10 222
1945362S15123 1946 88 SI WA NOT_NAMED 1945-12-30 11:00:00 TS -19.0568 116.807 main 167 156 P_____P__PO___ SH041946 -19.2469 116.814 -1 -18.4333 116.801 -19.2469 116.814 TC -19.3000 116.800 7 11 220
1945362S15123 1946 88 SI WA NOT_NAMED 1945-12-30 12:00:00 TS -19.1978 116.691 main 156 105 O_____P__OP___ jtwc_sh SH041946 -19.4000 116.700 -1 -18.5317 116.674 -19.4000 116.700 TC -19.4594 116.689 7 12 215
1945362S15123 1946 88 SI WA NOT_NAMED 1945-12-30 15:00:00 TS -19.6829 116.344 main 108 81 P_____P__PP___ SH041946 -19.9499 116.350 -1 -18.8657 116.314 -19.9499 116.350 TC -19.9660 116.364 7 12 213
1945362S15123 1946 88 SI WA NOT_NAMED 1945-12-30 18:00:00 TS -20.1801 116.000 main 81 59 O_____P__OP___ jtwc_sh SH041946 -20.5000 116.000 -1 -19.2442 115.968 -20.5000 116.000 TC -20.4764 116.033 7 11 214
1945362S15123 1946 88 SI WA NOT_NAMED 1945-12-30 21:00:00 TS -20.6274 115.662 main 59 53 P_____P__PP___ SH041946 -20.9597 115.680 -1 -19.6493 115.616 -20.9597 115.680 TC -20.9407 115.671 7 11 218
1945362S15123 1946 88 SI WA NOT_NAMED 1945-12-30 23:00:00 TS -20.8828 115.411 main 53 53 P_____P__PO___ SH041946 -21.2029 115.439 -1 -19.9254 115.367 -21.2029 115.439 TC -21.2000 115.400 7 10 225
1945362S15123 1946 88 SI WA NOT_NAMED 1945-12-31 00:00:00 TS -20.9896 115.270 main 53 53 O_____P__OP___ jtwc_sh SH041946 -21.3000 115.300 -1 -20.0632 115.236 -21.3000 115.300 TC -21.2950 115.243 7 10 234
1945362S15123 1946 88 SI WA NOT_NAMED 1945-12-31 01:00:00 TS -21.0824 115.114 980 bom main 56 54 P_____O__PP___ SH041946 -21.3760 115.139 -1 -20.2000 115.100 980 4 -21.3760 115.139 TC -21.3776 115.079 7 11 242
1945362S15123 1946 88 SI WA NOT_NAMED 1945-12-31 03:00:00 TS -21.2328 114.772 main 56 49 P_____P__PP___ SH041946 -21.4801 114.780 -1 -20.4588 114.796 981 -21.4801 114.780 TC -21.5124 114.732 7 11 247
1945362S15123 1946 88 SI WA NOT_NAMED 1945-12-31 06:00:00 TS -21.4289 114.226 main 56 35 O_____P__OP___ jtwc_sh SH041946 -21.6000 114.200 -1 -20.8512 114.316 982 -21.6000 114.200 TC -21.6645 114.188 7 11 247
1945362S15123 1946 88 SI WA NOT_NAMED 1945-12-31 09:00:00 TS -21.6526 113.685 main 38 38 P_____P__PP___ SH041946 -21.7850 113.635 -1 -21.2427 113.824 983 -21.7850 113.635 TC -21.7980 113.645 7 11 245
1945362S15123 1946 88 SI WA NOT_NAMED 1945-12-31 11:00:00 TS -21.8125 113.336 985 bom main 70 65 P_____O__PO___ SH041946 -21.9250 113.272 -1 -21.5000 113.500 985 -21.9250 113.272 TC -21.9000 113.300 7 11 243
1945362S15123 1946 88 SI WA NOT_NAMED 1945-12-31 12:00:00 TS -21.9014 113.168 main 75 75 O_____P__OP___ jtwc_sh SH041946 -22.0000 113.100 -1 -21.6299 113.339 -22.0000 113.100 TC -21.9756 113.135 7 11 239
1945362S15123 1946 88 SI WA NOT_NAMED 1945-12-31 15:00:00 TS -22.1805 112.689 main 102 102 P_____P__PP___ SH041946 -22.2424 112.620 -1 -22.0172 112.856 -22.2424 112.620 TC -22.2202 112.659 7 10 236
1945362S15123 1946 88 SI WA NOT_NAMED 1945-12-31 18:00:00 TS -22.4686 112.251 main 133 133 O_____P__OP___ jtwc_sh SH041946 -22.5000 112.200 -1 -22.3951 112.386 -22.5000 112.200 TC -22.4793 112.219 7 10 234
1945362S15123 1946 88 SI WA NOT_NAMED 1945-12-31 21:00:00 TS -22.7521 111.848 main 185 185 P_____P__PP___ SH041946 -22.7574 111.812 -1 -22.7565 111.939 -22.7574 111.812 TC -22.7369 111.827 7 9 232
1945362S15123 1946 88 SI WA NOT_NAMED 1945-12-31 23:00:00 TS -22.9323 111.612 main 207 207 P_____P__PO___ SH041946 -22.9224 111.594 -1 -22.9846 111.660 -22.9224 111.594 TC -22.9000 111.600 7 8 230
1945362S15123 1946 88 SI WA NOT_NAMED 1946-01-01 00:00:00 TS -23.0158 111.507 main 219 219 O_____P__OP___ jtwc_sh SH041946 -23.0000 111.500 -1 -23.0940 111.527 -23.0000 111.500 TC -22.9694 111.499 7 7 229
1945362S15123 1946 88 SI WA NOT_NAMED 1946-01-01 01:00:00 TS -23.0952 111.411 990 bom main 231 231 P_____O__PP___ SH041946 -23.0723 111.419 -1 -23.2000 111.400 990 -23.0723 111.419 TC -23.0364 111.406 7 7 227
1945362S15123 1946 88 SI WA NOT_NAMED 1946-01-01 03:00:00 TS -23.2453 111.243 main 247 243 P_____P__PP___ SH041946 -23.2073 111.285 -1 -23.4012 111.162 -23.2073 111.285 TC -23.1653 111.241 7 6 225
1945362S15123 1946 88 SI WA NOT_NAMED 1946-01-01 06:00:00 TS -23.4583 111.018 main 258 258 O_____P__OP___ jtwc_sh SH041946 -23.4000 111.100 -1 -23.6782 110.842 -23.4000 111.100 TC -23.3552 111.029 7 6 225
1945362S15123 1946 88 SI WA NOT_NAMED 1946-01-01 09:00:00 TS -23.6671 110.778 main 275 275 P_____P__PP___ SH041946 -23.5925 110.857 -1 -23.9291 110.564 -23.5925 110.857 TC -23.5544 110.834 7 6 226
1945362S15123 1946 88 SI WA NOT_NAMED 1946-01-01 11:00:00 TS -23.8098 110.617 main 291 289 P_____P__PO___ SH041946 -23.7276 110.686 -1 -24.0841 110.397 -23.7276 110.686 TC -23.7000 110.700 7 6 225
1945362S15123 1946 88 SI WA NOT_NAMED 1946-01-01 12:00:00 TS -23.8961 110.528 main 299 297 O_____P__OP___ jtwc_sh SH041946 -23.8000 110.600 -1 -24.1583 110.319 -23.8000 110.600 TC -23.7782 110.629 7 7 222
1945362S15123 1946 88 SI WA NOT_NAMED 1946-01-01 15:00:00 TS -24.1476 110.283 main 315 314 P_____P__PP___ SH041946 -24.0401 110.348 -1 -24.3699 110.103 -24.0401 110.348 TC -24.0327 110.398 7 7 221
1945362S15123 1946 88 SI WA NOT_NAMED 1946-01-01 18:00:00 TS -24.4225 110.030 main 344 344 O_____P__OP___ jtwc_sh SH041946 -24.3000 110.100 -1 -24.5679 109.908 -24.3000 110.100 TC -24.3103 110.146 7 7 219
1945362S15123 1946 88 SI WA NOT_NAMED 1946-01-01 21:00:00 NR -24.7050 109.779 main 365 365 ______P___P___ SH041946 -1 -24.7564 109.728 TC -24.6020 109.881 7 7 219
1945362S15123 1946 88 SI WA NOT_NAMED 1946-01-01 23:00:00 NR -24.8591 109.635 main 387 387 ______P___O___ SH041946 -1 -24.8788 109.613 TC -24.8000 109.700 7 6 220
1945362S15123 1946 88 SI WA NOT_NAMED 1946-01-02 00:00:00 TS -24.9263 109.571 main 387 387 ______P_______ -1 -24.9395 109.556 7 6 222
1945362S15123 1946 88 SI WA NOT_NAMED 1946-01-02 01:00:00 NR -25.0000 109.500 1000 bom main 399 ______O_______ -1 -25.0000 109.500 1000 7 6 221

IBTrACS Databaseについて

本データベースは、米国NOAAが公開する1842年以降の世界の熱帯低気圧のベストトラックデータアーカイブInternational Best Track Archive for Climate Stewardship (IBTrACS)を、ウェブで閲覧しやすい形式に変換したものです。

最終更新日:2021-12-06